Time;durP1;ratioP1;P1;durP2;ratioP2;P2;SDS_P1;SDS_P2;PMS_P1;PMS_P2;Temp;Humidity;BMP_temperature;BMP_pressure;BME280_temperature;BME280_humidity;BME280_pressure;Samples;Min_cycle;Max_cycle;Signal;HPM_P1;HPM_P2
2023/04/21 00:02:06;;;;;;;18.30;14.30;;;5.90;99.90;;;;;;5047568;28;20236;-57
2023/04/21 00:04:35;;;;;;;20.40;14.57;;;5.90;99.90;;;;;;5048891;28;20195;-57
2023/04/21 00:07:04;;;;;;;21.37;15.40;;;5.90;99.90;;;;;;5048938;28;20644;-57
2023/04/21 00:09:32;;;;;;;21.97;14.03;;;5.90;99.90;;;;;;5048306;28;20220;-57
2023/04/21 00:12:00;;;;;;;19.57;14.57;;;5.80;99.90;;;;;;5044553;28;20220;-57
2023/04/21 00:14:28;;;;;;;20.90;15.13;;;5.80;99.90;;;;;;5048975;28;20224;-58
2023/04/21 00:16:58;;;;;;;18.07;13.90;;;5.70;99.90;;;;;;5051576;28;20263;-57
2023/04/21 00:19:28;;;;;;;20.33;15.40;;;5.70;99.90;;;;;;5048070;28;20225;-57
2023/04/21 00:21:59;;;;;;;20.60;14.73;;;5.70;99.90;;;;;;5040927;28;20235;-57
2023/04/21 00:24:28;;;;;;;21.00;14.77;;;5.70;99.90;;;;;;5046452;28;21290;-58
2023/04/21 00:26:56;;;;;;;18.87;14.30;;;5.70;99.90;;;;;;5048578;28;20286;-57
2023/04/21 00:29:24;;;;;;;22.50;14.23;;;5.80;99.90;;;;;;5045731;28;20278;-57
2023/04/21 00:31:52;;;;;;;20.30;14.50;;;5.80;99.90;;;;;;5049549;28;20224;-57
2023/04/21 00:34:21;;;;;;;19.90;14.57;;;5.80;99.90;;;;;;5049701;28;20203;-57
2023/04/21 00:36:50;;;;;;;19.07;14.40;;;5.90;99.90;;;;;;5052184;28;20212;-58
2023/04/21 00:39:19;;;;;;;19.53;13.90;;;5.90;99.90;;;;;;5048259;28;20278;-57
2023/04/21 00:41:47;;;;;;;23.20;15.47;;;5.90;99.90;;;;;;5047789;28;20228;-57
2023/04/21 00:44:15;;;;;;;20.33;14.37;;;6.00;99.90;;;;;;5052565;28;20224;-57
2023/04/21 00:46:43;;;;;;;21.77;14.43;;;6.00;99.90;;;;;;5044358;28;20225;-57
2023/04/21 00:49:13;;;;;;;20.73;14.93;;;6.00;99.90;;;;;;5047674;28;20204;-57
2023/04/21 00:51:41;;;;;;;20.23;14.93;;;6.00;99.90;;;;;;5049865;28;20216;-57
2023/04/21 00:54:13;;;;;;;21.20;15.27;;;6.00;99.90;;;;;;5048873;28;20282;-57
2023/04/21 00:56:42;;;;;;;20.80;15.03;;;6.00;99.90;;;;;;5051868;28;20271;-57
2023/04/21 00:59:10;;;;;;;22.53;15.57;;;6.10;99.90;;;;;;5042189;28;20275;-57
2023/04/21 01:01:38;;;;;;;19.23;14.63;;;6.10;99.90;;;;;;5042796;28;20189;-57
2023/04/21 01:04:09;;;;;;;20.13;14.87;;;6.10;99.90;;;;;;5050630;28;20191;-57
2023/04/21 01:06:38;;;;;;;21.17;14.83;;;6.10;99.90;;;;;;5048565;28;20216;-57
2023/04/21 01:09:06;;;;;;;18.90;14.43;;;6.10;99.90;;;;;;5043021;28;20701;-58
2023/04/21 01:11:36;;;;;;;18.23;14.20;;;6.20;99.90;;;;;;5051794;28;20289;-58
2023/04/21 01:14:04;;;;;;;18.70;14.10;;;6.20;99.90;;;;;;5050347;28;20212;-58
2023/04/21 01:16:32;;;;;;;20.87;15.37;;;6.20;99.90;;;;;;5047255;28;20666;-57
2023/04/21 01:19:03;;;;;;;22.37;15.53;;;6.20;99.90;;;;;;5048565;28;22202;-57
2023/04/21 01:21:39;;;;;;;20.67;14.73;;;6.20;99.90;;;;;;5053461;28;20247;-58
2023/04/21 01:24:08;;;;;;;18.93;14.43;;;6.30;99.90;;;;;;5048319;28;20712;-57
2023/04/21 01:26:36;;;;;;;18.63;14.10;;;6.30;99.90;;;;;;5040485;28;20243;-58
2023/04/21 01:29:04;;;;;;;20.70;14.60;;;6.40;99.90;;;;;;5041364;28;20267;-57
2023/04/21 01:31:32;;;;;;;20.10;15.00;;;6.40;99.90;;;;;;5044437;28;20228;-57
2023/04/21 01:34:04;;;;;;;25.93;15.17;;;6.40;99.90;;;;;;5047649;28;20189;-57
2023/04/21 01:36:32;;;;;;;20.57;14.53;;;6.40;99.90;;;;;;5044760;28;20275;-57
2023/04/21 01:39:02;;;;;;;22.03;15.97;;;6.50;99.90;;;;;;5047769;28;20213;-58
2023/04/21 01:41:31;;;;;;;23.10;15.73;;;6.50;99.90;;;;;;5050396;28;20212;-57
2023/04/21 01:43:59;;;;;;;20.40;16.00;;;6.50;99.90;;;;;;5047580;28;21101;-58
2023/04/21 01:46:28;;;;;;;22.60;16.43;;;6.50;99.90;;;;;;5047609;28;20193;-57
2023/04/21 01:48:57;;;;;;;20.97;15.53;;;6.50;99.90;;;;;;5044817;28;20301;-57
2023/04/21 01:51:25;;;;;;;23.20;16.63;;;6.50;99.90;;;;;;5041709;28;20281;-58
2023/04/21 01:53:54;;;;;;;23.60;16.40;;;6.60;99.90;;;;;;5049513;28;20273;-57
2023/04/21 01:56:23;;;;;;;24.57;17.37;;;6.60;99.90;;;;;;5046267;28;20266;-57
2023/04/21 01:58:52;;;;;;;23.67;17.80;;;6.60;99.90;;;;;;5049269;28;20225;-57
2023/04/21 02:01:20;;;;;;;23.53;17.60;;;6.60;99.90;;;;;;5045380;28;20201;-57
2023/04/21 02:03:48;;;;;;;26.37;17.93;;;6.60;99.90;;;;;;5049254;28;20274;-57
2023/04/21 02:06:17;;;;;;;27.80;18.73;;;6.60;99.90;;;;;;5048820;28;20213;-57
2023/04/21 02:08:45;;;;;;;27.67;19.10;;;6.60;99.90;;;;;;5044394;28;20251;-57
2023/04/21 02:11:14;;;;;;;32.63;20.57;;;6.60;99.90;;;;;;5046643;28;20247;-57
2023/04/21 02:13:43;;;;;;;32.47;21.30;;;6.60;99.90;;;;;;5046982;28;20223;-57
2023/04/21 02:16:12;;;;;;;32.43;21.00;;;6.60;99.90;;;;;;5044183;28;20196;-57
2023/04/21 02:18:43;;;;;;;35.50;22.00;;;6.50;99.90;;;;;;5042838;28;20254;-58
2023/04/21 02:21:11;;;;;;;35.67;22.40;;;6.60;99.90;;;;;;5048244;28;20221;-57
2023/04/21 02:23:40;;;;;;;35.50;23.83;;;6.50;99.90;;;;;;5046843;28;20263;-57
2023/04/21 02:26:09;;;;;;;38.53;24.00;;;6.50;99.90;;;;;;5049237;28;20212;-57
2023/04/21 02:28:39;;;;;;;37.97;23.80;;;6.50;99.90;;;;;;5047451;28;20223;-57
2023/04/21 02:31:09;;;;;;;40.73;25.07;;;6.50;99.90;;;;;;5048676;28;21430;-58
2023/04/21 02:33:38;;;;;;;39.40;25.13;;;6.50;99.90;;;;;;5048885;28;20212;-57
2023/04/21 02:36:07;;;;;;;41.00;24.83;;;6.50;99.90;;;;;;5048465;28;20213;-57
2023/04/21 02:38:35;;;;;;;37.20;25.00;;;6.40;99.90;;;;;;5045411;28;20221;-57
2023/04/21 02:41:03;;;;;;;41.80;26.00;;;6.40;99.90;;;;;;5046272;28;20240;-57
2023/04/21 02:43:31;;;;;;;40.70;26.27;;;6.40;99.90;;;;;;5042320;28;20193;-56
2023/04/21 02:46:00;;;;;;;45.23;27.53;;;6.40;99.90;;;;;;5047980;28;20255;-57
2023/04/21 02:48:29;;;;;;;45.57;27.90;;;6.40;99.90;;;;;;5049043;28;20224;-57
2023/04/21 02:50:57;;;;;;;47.17;27.33;;;6.40;99.90;;;;;;5039353;28;20225;-57
2023/04/21 02:53:26;;;;;;;48.00;28.33;;;6.50;99.90;;;;;;5047524;28;20225;-57
2023/04/21 02:55:54;;;;;;;51.87;28.90;;;6.40;99.90;;;;;;5048112;28;20262;-58
2023/04/21 02:58:22;;;;;;;52.50;31.07;;;6.50;99.90;;;;;;5046431;28;20215;-57
2023/04/21 03:00:54;;;;;;;53.57;29.83;;;6.40;99.90;;;;;;5050782;28;20204;-57
2023/04/21 03:03:22;;;;;;;52.70;30.13;;;6.40;99.90;;;;;;5050733;28;20299;-57
2023/04/21 03:05:57;;;;;;;48.87;29.57;;;6.50;99.90;;;;;;5053186;28;20216;-57
2023/04/21 03:08:26;;;;;;;53.97;30.70;;;6.50;99.90;;;;;;5045204;28;20286;-57
2023/04/21 03:10:54;;;;;;;55.80;32.30;;;6.50;99.90;;;;;;5046457;28;20216;-57
2023/04/21 03:13:23;;;;;;;61.17;32.27;;;6.40;99.90;;;;;;5051193;28;20239;-58
2023/04/21 03:15:51;;;;;;;57.70;33.13;;;6.40;99.90;;;;;;5046406;28;20189;-57
2023/04/21 03:18:19;;;;;;;55.00;32.53;;;6.40;99.90;;;;;;5050523;28;21450;-58
2023/04/21 03:20:47;;;;;;;58.27;32.33;;;6.50;99.90;;;;;;5046601;28;20216;-57
2023/04/21 03:23:17;;;;;;;61.53;33.50;;;6.50;99.90;;;;;;5049242;28;20742;-57
2023/04/21 03:25:45;;;;;;;62.53;34.63;;;6.50;99.90;;;;;;5049294;28;20343;-58
2023/04/21 03:28:15;;;;;;;64.23;35.40;;;6.40;99.90;;;;;;5054654;28;20201;-57
2023/04/21 03:30:44;;;;;;;71.07;35.73;;;6.40;99.90;;;;;;5042967;28;20212;-57
2023/04/21 03:33:12;;;;;;;66.83;35.40;;;6.40;99.90;;;;;;5049085;28;20269;-57
2023/04/21 03:35:40;;;;;;;66.60;37.60;;;6.50;99.90;;;;;;5050443;28;20702;-57
2023/04/21 03:38:08;;;;;;;69.97;37.10;;;6.50;99.90;;;;;;5051019;28;20240;-57
2023/04/21 03:40:38;;;;;;;74.07;38.13;;;6.50;99.90;;;;;;5044925;28;20245;-57
2023/04/21 03:43:06;;;;;;;70.40;36.43;;;6.40;99.90;;;;;;5051596;28;20696;-57
2023/04/21 03:45:35;;;;;;;71.00;36.70;;;6.40;99.90;;;;;;5049301;28;20214;-57
2023/04/21 03:48:04;;;;;;;66.70;34.97;;;6.40;99.90;;;;;;5047493;28;20311;-58
2023/04/21 03:50:33;;;;;;;70.93;37.40;;;6.30;99.90;;;;;;5038734;28;20545;-57
2023/04/21 03:53:01;;;;;;;74.90;37.30;;;6.30;99.90;;;;;;5052913;28;20705;-58
2023/04/21 03:55:29;;;;;;;81.27;40.20;;;6.30;99.90;;;;;;5048716;28;20209;-57
2023/04/21 03:57:59;;;;;;;79.33;39.43;;;6.20;99.90;;;;;;5050598;28;20185;-58
2023/04/21 04:00:27;;;;;;;80.20;39.77;;;6.20;99.90;;;;;;5050590;28;20217;-58
2023/04/21 04:02:55;;;;;;;86.57;42.40;;;6.30;99.90;;;;;;5047828;28;20217;-57
2023/04/21 04:05:24;;;;;;;85.57;41.33;;;6.30;99.90;;;;;;5046363;28;20228;-57
2023/04/21 04:07:52;;;;;;;84.97;40.77;;;6.40;99.90;;;;;;5052247;28;20574;-57
2023/04/21 04:10:20;;;;;;;97.10;44.03;;;6.40;99.90;;;;;;5050344;28;20189;-57
2023/04/21 04:12:48;;;;;;;87.20;42.23;;;6.40;99.90;;;;;;5047247;28;20274;-58
2023/04/21 04:15:18;;;;;;;89.33;43.23;;;6.40;99.90;;;;;;5046962;28;20224;-58
2023/04/21 04:17:47;;;;;;;92.33;43.53;;;6.40;99.90;;;;;;5047920;28;20618;-57
2023/04/21 04:20:15;;;;;;;92.33;43.73;;;6.40;99.90;;;;;;5049557;28;20221;-57
2023/04/21 04:22:43;;;;;;;88.70;41.53;;;6.40;99.90;;;;;;5050399;28;20266;-58
2023/04/21 04:25:13;;;;;;;91.57;43.80;;;6.50;99.90;;;;;;5046587;28;20559;-57
2023/04/21 04:27:43;;;;;;;94.80;43.63;;;6.50;99.90;;;;;;5050636;28;20266;-57
2023/04/21 04:30:13;;;;;;;92.43;43.73;;;6.50;99.90;;;;;;5051174;28;20694;-57
2023/04/21 04:32:43;;;;;;;90.57;43.27;;;6.50;99.90;;;;;;5050414;28;20278;-57
2023/04/21 04:35:11;;;;;;;90.70;43.47;;;6.50;99.90;;;;;;5044100;28;20229;-57
2023/04/21 04:37:44;;;;;;;94.43;44.43;;;6.50;99.90;;;;;;5040166;28;20193;-57
2023/04/21 04:40:13;;;;;;;92.90;44.87;;;6.50;99.90;;;;;;5050821;28;20226;-58
2023/04/21 04:42:41;;;;;;;97.20;44.27;;;6.50;99.90;;;;;;5048644;28;20294;-57
2023/04/21 04:45:10;;;;;;;98.73;44.97;;;6.50;99.90;;;;;;5064623;28;20224;-59
2023/04/21 04:47:38;;;;;;;92.37;43.80;;;6.50;99.90;;;;;;5040663;28;20212;-57
2023/04/21 04:50:08;;;;;;;91.50;44.27;;;6.50;99.90;;;;;;5047133;28;20591;-57
2023/04/21 04:52:36;;;;;;;97.23;45.20;;;6.60;99.90;;;;;;5050449;28;20189;-57
2023/04/21 04:55:06;;;;;;;95.67;44.10;;;6.60;99.90;;;;;;5045648;28;20242;-57
2023/04/21 04:57:36;;;;;;;95.13;43.27;;;6.60;99.90;;;;;;5044050;28;20293;-57
2023/04/21 05:00:07;;;;;;;99.73;44.73;;;6.60;99.90;;;;;;5046266;28;20274;-57
2023/04/21 05:02:35;;;;;;;91.13;43.70;;;6.70;99.90;;;;;;5042024;28;20217;-58
2023/04/21 05:05:04;;;;;;;91.67;43.47;;;6.70;99.90;;;;;;5042293;28;20212;-58
2023/04/21 05:07:34;;;;;;;90.83;43.40;;;6.70;99.90;;;;;;5046341;28;20204;-57
2023/04/21 05:10:03;;;;;;;88.63;43.23;;;6.80;99.90;;;;;;5041433;28;20228;-57
2023/04/21 05:12:32;;;;;;;85.00;42.83;;;6.80;99.90;;;;;;5042114;28;20306;-57
2023/04/21 05:15:01;;;;;;;92.77;44.30;;;6.70;99.90;;;;;;5046268;28;20217;-58
2023/04/21 05:17:29;;;;;;;91.27;43.73;;;6.80;99.90;;;;;;5042879;28;20339;-57
2023/04/21 05:19:58;;;;;;;88.77;43.77;;;6.80;99.90;;;;;;5045272;28;20220;-57
2023/04/21 05:22:26;;;;;;;90.77;43.20;;;6.80;99.90;;;;;;5038035;28;20260;-57
2023/04/21 05:24:59;;;;;;;84.23;42.10;;;6.80;99.90;;;;;;5056592;28;20654;-57
2023/04/21 05:27:27;;;;;;;86.23;42.50;;;6.90;99.90;;;;;;5045999;28;20224;-58
2023/04/21 05:29:55;;;;;;;79.93;41.77;;;6.90;99.90;;;;;;5036329;28;20259;-58
2023/04/21 05:32:23;;;;;;;83.57;42.47;;;6.90;99.90;;;;;;5038008;28;20217;-57
2023/04/21 05:34:52;;;;;;;78.47;40.47;;;6.90;99.90;;;;;;5039758;28;20851;-57
2023/04/21 05:37:20;;;;;;;78.47;40.73;;;6.90;99.90;;;;;;5039710;28;20239;-57
2023/04/21 05:39:48;;;;;;;75.67;40.23;;;6.90;99.90;;;;;;5038189;28;20209;-57
2023/04/21 05:42:18;;;;;;;74.80;40.17;;;6.90;99.90;;;;;;5044354;28;20291;-57
2023/04/21 05:44:46;;;;;;;77.43;40.53;;;7.00;99.90;;;;;;5042342;28;20213;-57
2023/04/21 05:47:14;;;;;;;75.77;38.87;;;7.00;99.90;;;;;;5043033;28;20555;-57
2023/04/21 05:49:48;;;;;;;75.13;39.90;;;7.00;99.90;;;;;;5042982;28;20232;-57
2023/04/21 05:52:20;;;;;;;73.60;38.70;;;7.10;99.90;;;;;;5045086;28;20208;-57
2023/04/21 05:54:48;;;;;;;74.10;39.20;;;7.20;99.90;;;;;;5050857;28;20279;-57
2023/04/21 05:57:19;;;;;;;67.97;37.23;;;7.30;99.90;;;;;;5049924;28;20224;-58
2023/04/21 05:59:47;;;;;;;69.43;38.87;;;7.40;99.90;;;;;;5052193;28;20580;-57
2023/04/21 06:02:15;;;;;;;68.40;37.23;;;7.60;99.90;;;;;;5052188;28;20644;-57
2023/04/21 06:04:43;;;;;;;65.13;36.23;;;7.70;99.90;;;;;;5049048;28;20678;-58
2023/04/21 06:07:12;;;;;;;62.67;35.63;;;7.70;99.90;;;;;;5047665;28;20207;-57
2023/04/21 06:09:42;;;;;;;63.77;36.03;;;7.70;99.90;;;;;;5047850;28;20229;-57
2023/04/21 06:12:10;;;;;;;61.30;36.40;;;7.70;99.90;;;;;;5050097;28;20212;-57
2023/04/21 06:14:40;;;;;;;58.93;34.53;;;7.70;99.90;;;;;;5052058;28;20212;-58
2023/04/21 06:17:08;;;;;;;59.13;33.40;;;7.80;99.90;;;;;;5052648;28;20716;-58
2023/04/21 06:19:38;;;;;;;54.27;33.53;;;8.00;99.90;;;;;;5048472;28;20221;-58
2023/04/21 06:22:08;;;;;;;53.83;33.73;;;8.30;99.90;;;;;;5041777;28;20204;-58
2023/04/21 06:24:37;;;;;;;50.17;32.83;;;8.60;99.90;;;;;;5047953;28;20220;-58
2023/04/21 06:27:11;;;;;;;48.60;30.23;;;8.80;99.90;;;;;;5045021;28;20267;-58
2023/04/21 06:29:41;;;;;;;46.87;30.60;;;8.70;99.90;;;;;;5050780;28;20212;-59
2023/04/21 06:32:09;;;;;;;45.70;29.33;;;8.60;99.90;;;;;;5042832;28;20225;-59
2023/04/21 06:34:38;;;;;;;47.00;29.43;;;8.70;99.90;;;;;;5049626;28;20279;-58
2023/04/21 06:37:06;;;;;;;45.37;28.77;;;8.80;99.90;;;;;;5044401;28;20193;-59
2023/04/21 06:39:34;;;;;;;43.43;29.00;;;9.10;99.90;;;;;;5052265;28;20247;-58
2023/04/21 06:42:03;;;;;;;39.77;27.50;;;9.30;99.90;;;;;;5048739;28;20228;-59
2023/04/21 06:44:31;;;;;;;37.47;25.60;;;9.60;99.90;;;;;;5054138;28;20213;-59
2023/04/21 06:47:01;;;;;;;37.33;25.87;;;9.80;99.90;;;;;;5052234;28;20625;-59
2023/04/21 06:49:29;;;;;;;35.03;25.13;;;9.90;99.90;;;;;;5052740;28;20201;-59
2023/04/21 06:51:57;;;;;;;33.67;23.67;;;10.30;99.90;;;;;;5053205;28;20239;-59
2023/04/21 06:54:26;;;;;;;31.07;22.67;;;10.70;99.90;;;;;;5044875;28;20217;-58
2023/04/21 06:56:54;;;;;;;30.80;21.33;;;10.80;99.90;;;;;;5046637;28;20325;-58
2023/04/21 06:59:22;;;;;;;28.37;21.43;;;10.90;99.90;;;;;;5047406;28;20219;-59
2023/04/21 07:01:51;;;;;;;28.10;21.07;;;11.00;99.90;;;;;;5050953;28;20706;-59
2023/04/21 07:04:21;;;;;;;30.30;21.33;;;11.00;99.90;;;;;;5051353;28;20192;-58
2023/04/21 07:06:49;;;;;;;28.40;21.13;;;10.90;99.90;;;;;;5049812;28;20232;-59
2023/04/21 07:09:17;;;;;;;30.20;22.23;;;10.80;99.90;;;;;;5050520;28;20228;-59
2023/04/21 07:11:46;;;;;;;28.73;20.43;;;10.60;99.90;;;;;;5052567;28;20252;-59
2023/04/21 07:14:14;;;;;;;28.20;20.77;;;10.60;99.90;;;;;;5051089;28;20251;-59
2023/04/21 07:16:42;;;;;;;26.50;19.73;;;10.90;99.90;;;;;;5048325;28;20224;-59
2023/04/21 07:19:10;;;;;;;28.73;19.53;;;11.30;99.90;;;;;;5046246;28;20201;-59
2023/04/21 07:21:40;;;;;;;27.77;19.33;;;11.70;99.90;;;;;;5050583;28;20271;-59
2023/04/21 07:24:09;;;;;;;25.57;18.07;;;12.00;99.90;;;;;;5052123;28;20590;-59
2023/04/21 07:26:37;;;;;;;24.73;19.17;;;12.10;99.90;;;;;;5051519;28;20266;-59
2023/04/21 07:29:06;;;;;;;24.13;17.47;;;12.50;99.90;;;;;;5048682;28;20212;-59
2023/04/21 07:31:34;;;;;;;23.47;18.63;;;12.80;99.90;;;;;;5050940;28;20287;-59
2023/04/21 07:34:02;;;;;;;24.00;17.73;;;12.70;99.90;;;;;;5049815;28;20234;-58
2023/04/21 07:36:31;;;;;;;23.23;17.13;;;13.00;99.90;;;;;;5044595;28;20224;-59
2023/04/21 07:39:01;;;;;;;20.90;16.30;;;13.30;99.90;;;;;;5048206;28;20223;-59
2023/04/21 07:41:29;;;;;;;22.13;17.10;;;13.40;99.90;;;;;;5050809;28;20231;-58
2023/04/21 07:43:57;;;;;;;21.27;16.40;;;13.50;99.90;;;;;;5052116;28;20224;-58
2023/04/21 07:46:29;;;;;;;23.93;18.13;;;13.60;99.90;;;;;;5046126;28;20200;-59
2023/04/21 07:48:58;;;;;;;19.50;15.93;;;13.30;99.90;;;;;;5051245;28;20193;-58
2023/04/21 07:51:28;;;;;;;21.10;16.87;;;13.40;99.90;;;;;;5049908;28;20228;-59
2023/04/21 07:53:56;;;;;;;21.20;17.40;;;13.50;99.90;;;;;;5051908;28;20213;-58
2023/04/21 07:56:26;;;;;;;18.20;14.67;;;13.80;99.90;;;;;;5048276;28;20214;-58
2023/04/21 07:58:54;;;;;;;21.33;16.03;;;13.90;99.90;;;;;;5047012;28;20287;-58
2023/04/21 08:01:23;;;;;;;19.67;15.20;;;13.70;99.90;;;;;;5048066;28;20239;-58
2023/04/21 08:03:51;;;;;;;19.97;15.40;;;13.10;99.90;;;;;;5049919;28;20579;-58
2023/04/21 08:06:20;;;;;;;18.33;15.10;;;12.90;99.90;;;;;;5048464;28;20217;-58
2023/04/21 08:08:49;;;;;;;19.87;15.83;;;13.00;99.90;;;;;;5046989;28;20710;-59
2023/04/21 08:11:17;;;;;;;17.07;14.73;;;13.40;99.90;;;;;;5049607;28;20312;-59
2023/04/21 08:13:46;;;;;;;15.97;13.93;;;13.50;99.90;;;;;;5051616;28;20224;-59
2023/04/21 08:16:15;;;;;;;17.47;14.37;;;13.40;99.90;;;;;;5052815;28;20196;-59
2023/04/21 08:18:43;;;;;;;21.40;14.03;;;13.30;99.90;;;;;;5047360;28;20216;-58
2023/04/21 08:21:12;;;;;;;16.03;13.07;;;13.20;99.90;;;;;;5047142;28;20225;-58
2023/04/21 08:23:40;;;;;;;15.93;13.27;;;12.90;99.90;;;;;;5043260;28;20567;-58
2023/04/21 08:26:09;;;;;;;14.30;12.70;;;12.90;99.90;;;;;;5048018;28;20216;-58
2023/04/21 08:28:38;;;;;;;18.40;13.17;;;13.60;99.90;;;;;;5044459;28;20617;-59
2023/04/21 08:31:07;;;;;;;15.57;13.00;;;14.20;99.90;;;;;;5048320;28;20193;-59
2023/04/21 08:33:38;;;;;;;18.10;13.60;;;14.30;99.90;;;;;;5047736;28;20236;-59
2023/04/21 08:36:21;;;;;;;16.00;13.37;;;14.40;99.90;;;;;;5047154;28;20278;-59
2023/04/21 08:38:56;;;;;;;16.07;13.23;;;14.70;99.90;;;;;;5045001;28;20237;-58
2023/04/21 08:41:26;;;;;;;14.27;12.53;;;15.10;99.90;;;;;;5043027;28;20205;-58
2023/04/21 08:43:54;;;;;;;15.57;13.00;;;14.90;99.90;;;;;;5047844;28;20229;-59
2023/04/21 08:46:24;;;;;;;14.53;12.40;;;14.90;99.90;;;;;;5048495;28;20243;-59
2023/04/21 08:48:53;;;;;;;15.97;12.90;;;15.00;99.90;;;;;;5051332;28;20223;-59
2023/04/21 08:51:23;;;;;;;18.13;12.63;;;15.10;99.90;;;;;;5047790;28;20669;-59
2023/04/21 08:53:52;;;;;;;16.03;11.87;;;15.20;99.90;;;;;;5045568;28;20286;-59
2023/04/21 08:56:20;;;;;;;13.77;12.20;;;15.50;99.90;;;;;;5047515;28;20216;-59
2023/04/21 08:58:48;;;;;;;15.10;11.70;;;16.00;99.90;;;;;;5048896;28;20236;-58
2023/04/21 09:01:17;;;;;;;12.87;11.53;;;16.20;99.90;;;;;;5047473;28;20220;-59
2023/04/21 09:03:46;;;;;;;12.80;11.50;;;16.60;99.90;;;;;;5048017;28;20232;-59
2023/04/21 09:06:15;;;;;;;11.93;10.57;;;16.70;99.90;;;;;;5042971;28;20212;-59
2023/04/21 09:08:52;;;;;;;12.40;11.10;;;16.80;99.90;;;;;;5045198;28;20637;-59
2023/04/21 09:11:20;;;;;;;12.40;10.40;;;17.40;99.90;;;;;;5045407;28;20224;-59
2023/04/21 09:13:48;;;;;;;11.67;10.47;;;17.20;99.90;;;;;;5048593;28;20290;-59
2023/04/21 09:16:19;;;;;;;13.00;11.10;;;17.40;99.90;;;;;;5049295;28;20188;-59
2023/04/21 09:18:50;;;;;;;10.83;9.83;;;17.50;99.90;;;;;;5042373;28;20228;-58
2023/04/21 09:21:19;;;;;;;9.90;8.90;;;18.00;99.90;;;;;;5039761;28;20234;-57
2023/04/21 09:23:49;;;;;;;11.43;9.67;;;18.60;99.90;;;;;;5049392;28;20283;-56
2023/04/21 09:26:18;;;;;;;9.80;8.83;;;18.90;99.90;;;;;;5045955;28;20233;-57
2023/04/21 09:28:48;;;;;;;9.73;8.83;;;19.20;99.90;;;;;;5044955;28;20700;-57
2023/04/21 09:31:19;;;;;;;8.37;7.67;;;19.60;99.90;;;;;;5046254;28;20230;-57
2023/04/21 09:33:51;;;;;;;8.53;7.73;;;20.40;99.90;;;;;;5049336;28;20231;-56
2023/04/21 09:36:25;;;;;;;8.37;7.60;;;20.80;99.90;;;;;;5049803;28;20285;-57
2023/04/21 09:38:57;;;;;;;8.20;7.50;;;21.40;99.90;;;;;;5045244;28;20213;-57
2023/04/21 09:41:45;;;;;;;9.27;7.57;;;21.50;99.90;;;;;;5045706;28;20228;-57
2023/04/21 09:44:16;;;;;;;8.80;8.00;;;21.60;99.90;;;;;;5049531;28;20266;-56
2023/04/21 09:46:49;;;;;;;8.87;8.17;;;21.20;99.90;;;;;;5045285;28;20550;-57
2023/04/21 09:49:22;;;;;;;10.63;8.43;;;20.80;99.90;;;;;;5047914;28;20188;-57
2023/04/21 09:51:51;;;;;;;9.00;8.10;;;20.50;99.90;;;;;;5046019;28;20624;-56
2023/04/21 09:54:29;;;;;;;9.03;8.33;;;20.40;99.90;;;;;;5047268;28;20236;-57
2023/04/21 09:57:00;;;;;;;10.10;9.10;;;21.00;99.90;;;;;;5046126;28;20230;-56
2023/04/21 09:59:32;;;;;;;9.63;8.70;;;20.30;99.90;;;;;;5048812;28;20270;-56
2023/04/21 10:02:04;;;;;;;10.17;9.20;;;20.50;99.90;;;;;;5047318;28;20230;-56
2023/04/21 10:04:36;;;;;;;10.07;9.17;;;20.50;99.90;;;;;;5047292;28;20545;-56
2023/04/21 10:07:06;;;;;;;10.30;8.93;;;20.70;99.90;;;;;;5044289;28;20192;-57
2023/04/21 10:09:40;;;;;;;10.83;8.70;;;21.10;99.90;;;;;;5045751;28;20251;-57
2023/04/21 10:12:09;;;;;;;9.77;8.77;;;21.30;99.90;;;;;;5045473;28;20217;-57
2023/04/21 10:14:37;;;;;;;9.17;8.27;;;21.50;99.90;;;;;;5043550;28;20265;-57
2023/04/21 10:17:06;;;;;;;10.97;9.87;;;21.70;99.90;;;;;;5041444;28;20231;-56
2023/04/21 10:19:39;;;;;;;10.30;9.23;;;21.50;99.90;;;;;;5043852;28;20692;-57
2023/04/21 10:22:08;;;;;;;10.63;9.50;;;21.00;99.90;;;;;;5050566;28;20203;-57
2023/04/21 10:24:38;;;;;;;10.40;9.30;;;21.70;99.90;;;;;;5045027;28;20639;-57
2023/04/21 10:27:10;;;;;;;10.03;9.00;;;20.60;99.90;;;;;;5045534;28;20678;-57
2023/04/21 10:29:39;;;;;;;9.50;8.70;;;20.30;99.90;;;;;;5043592;28;20250;-57
2023/04/21 10:32:38;;;;;;;9.37;8.40;;;20.60;99.90;;;;;;5059420;28;20301;-57
2023/04/21 10:35:11;;;;;;;8.83;8.00;;;20.50;99.90;;;;;;5048891;28;20577;-57
2023/04/21 10:37:41;;;;;;;8.50;7.80;;;20.90;99.90;;;;;;5046834;28;20676;-57
2023/04/21 10:40:35;;;;;;;10.33;9.40;;;21.50;99.90;;;;;;5051998;28;20252;-57
2023/04/21 10:43:06;;;;;;;9.63;8.80;;;21.70;99.90;;;;;;5044785;28;20213;-57
2023/04/21 10:45:34;;;;;;;10.73;9.17;;;21.50;99.90;;;;;;5043485;28;20269;-57
2023/04/21 10:48:13;;;;;;;9.70;8.80;;;21.10;99.90;;;;;;5047877;28;20216;-57
2023/04/21 10:50:44;;;;;;;9.07;8.30;;;21.20;99.90;;;;;;5052172;28;20225;-57
2023/04/21 10:53:13;;;;;;;8.37;7.60;;;21.20;99.90;;;;;;5044633;28;20674;-57
2023/04/21 10:55:42;;;;;;;8.27;7.47;;;20.90;99.90;;;;;;5048502;28;20181;-57
2023/04/21 10:58:10;;;;;;;9.60;8.57;;;21.20;99.90;;;;;;5060172;28;20203;-58
2023/04/21 11:00:38;;;;;;;10.13;9.17;;;20.70;99.90;;;;;;5047025;28;20219;-57
2023/04/21 11:03:08;;;;;;;10.03;9.10;;;20.70;99.90;;;;;;5050136;28;21398;-57
2023/04/21 11:05:39;;;;;;;9.80;9.00;;;20.80;99.90;;;;;;5053281;28;20326;-57
2023/04/21 11:08:11;;;;;;;8.70;8.00;;;20.80;99.90;;;;;;5045717;28;20577;-57
2023/04/21 11:10:52;;;;;;;8.67;7.67;;;20.30;99.90;;;;;;5046315;28;20200;-57
2023/04/21 11:13:26;;;;;;;8.07;7.37;;;20.90;99.90;;;;;;5046774;28;20272;-57
2023/04/21 11:16:02;;;;;;;8.00;7.20;;;21.00;99.90;;;;;;5045989;28;20274;-57
2023/04/21 11:18:48;;;;;;;7.83;7.03;;;20.90;99.90;;;;;;5050376;28;20651;-57
2023/04/21 11:21:20;;;;;;;7.57;6.73;;;21.10;99.90;;;;;;5050587;28;20295;-57
2023/04/21 11:23:51;;;;;;;8.43;7.67;;;20.50;99.90;;;;;;5038548;28;20213;-57
2023/04/21 11:26:31;;;;;;;8.27;7.43;;;20.60;99.90;;;;;;5047042;28;20483;-56
2023/04/21 11:29:04;;;;;;;7.20;6.50;;;21.10;99.90;;;;;;5047139;28;20218;-57
2023/04/21 11:31:33;;;;;;;12.53;7.80;;;20.80;99.90;;;;;;5050242;28;20194;-57
2023/04/21 11:34:04;;;;;;;7.70;7.10;;;20.40;99.90;;;;;;5046958;28;20185;-56
2023/04/21 11:36:33;;;;;;;8.40;7.63;;;19.60;99.90;;;;;;5060002;28;20249;-59
2023/04/21 11:39:08;;;;;;;8.50;7.73;;;19.60;99.90;;;;;;5047532;28;20220;-60
2023/04/21 11:41:39;;;;;;;8.43;7.57;;;19.70;99.90;;;;;;5052723;28;20220;-59
2023/04/21 11:44:08;;;;;;;7.40;6.63;;;19.60;99.90;;;;;;5047303;28;20288;-60
2023/04/21 11:46:37;;;;;;;8.67;6.70;;;19.80;99.90;;;;;;5048767;28;20193;-59
2023/04/21 11:49:06;;;;;;;9.10;6.73;;;20.00;99.90;;;;;;5047234;28;20185;-60
2023/04/21 11:51:36;;;;;;;6.57;6.07;;;20.30;99.90;;;;;;5044977;28;20216;-58
2023/04/21 11:54:08;;;;;;;6.87;6.37;;;20.50;99.90;;;;;;5048668;28;20812;-59
2023/04/21 11:56:37;;;;;;;6.90;6.27;;;20.70;99.90;;;;;;5048849;28;20217;-59
2023/04/21 11:59:09;;;;;;;7.30;6.70;;;20.90;99.90;;;;;;5045967;28;20232;-57
2023/04/21 12:01:44;;;;;;;7.83;6.83;;;20.60;99.90;;;;;;5042397;28;20536;-57
2023/04/21 12:04:16;;;;;;;8.00;7.30;;;20.50;99.90;;;;;;5047048;28;23351;-59
2023/04/21 12:06:46;;;;;;;7.10;6.50;;;20.00;99.90;;;;;;5047902;28;21638;-59
2023/04/21 12:09:20;;;;;;;7.63;7.00;;;19.90;99.90;;;;;;5050615;28;20220;-59
2023/04/21 12:11:49;;;;;;;7.17;6.57;;;19.70;99.90;;;;;;5048362;28;20307;-59
2023/04/21 12:14:18;;;;;;;7.00;6.43;;;19.80;99.90;;;;;;5046532;28;20228;-59
2023/04/21 12:16:50;;;;;;;7.40;6.77;;;19.80;99.90;;;;;;5045161;28;20225;-59
2023/04/21 12:19:25;;;;;;;7.37;6.77;;;19.70;99.90;;;;;;5046682;28;20274;-58
2023/04/21 12:21:54;;;;;;;8.90;7.60;;;19.40;99.90;;;;;;5044054;28;20212;-59
2023/04/21 12:24:24;;;;;;;8.17;6.10;;;19.20;99.90;;;;;;5044796;28;20217;-59
2023/04/21 12:26:53;;;;;;;8.23;6.53;;;19.50;99.90;;;;;;5049519;28;20219;-60
2023/04/21 12:29:21;;;;;;;6.50;5.90;;;19.40;99.90;;;;;;5050734;28;20247;-58
2023/04/21 12:31:50;;;;;;;6.07;5.50;;;19.40;99.90;;;;;;5044071;28;20610;-60
2023/04/21 12:34:18;;;;;;;5.47;5.07;;;19.30;99.90;;;;;;5050788;28;20196;-59
2023/04/21 12:36:46;;;;;;;5.57;5.17;;;19.00;99.90;;;;;;5051480;28;20240;-59
2023/04/21 12:39:18;;;;;;;8.67;5.50;;;19.10;99.90;;;;;;5049292;28;20690;-59
2023/04/21 12:41:48;;;;;;;6.40;5.90;;;19.20;99.90;;;;;;5050661;28;20229;-59
2023/04/21 12:44:16;;;;;;;7.00;6.03;;;19.40;99.90;;;;;;5047480;28;20669;-58
2023/04/21 12:46:44;;;;;;;5.90;5.40;;;19.50;98.70;;;;;;5049806;28;20287;-59
2023/04/21 12:49:14;;;;;;;6.50;5.77;;;19.10;99.40;;;;;;5052564;28;20630;-58
2023/04/21 12:51:43;;;;;;;5.70;5.20;;;18.90;99.90;;;;;;5050042;28;20228;-58